Weather


ICAO METAR
KAAF KAAF 230753Z AUTO 00000KT 10SM CLR 24/24 A2997 RMK AO2 SLP149 T02390239
KABY KABY 230753Z AUTO 25005KT 10SM SCT055 25/24 A2999 RMK AO2 SLP154 T02500239
KAIK KAIK 230755Z AUTO 23003KT 10SM CLR 23/22 A2999 RMK AO2
KAMG KAMG 230753Z AUTO 00000KT 8SM CLR 24/23 A2997 RMK AO2 SLP146 T02390228
KAYS KAYS 230755Z AUTO 23003KT 10SM CLR 24/23 A2997 RMK AO2 T02430226
KAZE KAZE 230755Z AUTO 00000KT 10SM CLR 25/23 A2997 RMK AO2 T02490230
KBBP KBBP 230755Z AUTO 22004KT 10SM SCT009 OVC100 26/25 A2991 RMK AO2
KBGE KBGE 230755Z AUTO 00000KT 10SM CLR 25/25 A2999 RMK AO2
KBIJ KBIJ 230755Z AUTO 00000KT 10SM CLR 25/23 A2999 RMK AO2
KBNL KBNL 230755Z AUTO 21004KT 10SM CLR 25/24 A2995 RMK AO2
KBOW KBOW 230755Z AUTO 00000KT 10SM CLR 24/ A2996 RMK AO2 FZRANO
KBQK KBQK 230755Z AUTO 22004KT 10SM SCT110 25/23 A2998 RMK AO2
KCAE KCAE 230756Z 25003KT 10SM CLR 24/22 A2992 RMK AO2 SLP128 T02440222
KCDN KCDN 230755Z AUTO 00000KT 10SM CLR 24/23 A2993 RMK AO2
KCEW KCEW 230753Z AUTO 00000KT 4SM BR SCT003 23/22 A3001 RMK AO2 SLP158 T02280217
KCHS KCHS 230756Z 23005KT 10SM SCT046 25/24 A2995 RMK AO2 SLP142 T02500244
KCKF KCKF 230755Z AUTO 00000KT 10SM CLR 27/25 A2998 RMK AO2 T02720245
KCOF KCOF 230758Z AUTO 14003KT 10SM CLR 28/25 A2994 RMK AO2 SLP143 T02760247 $
KCPC KCPC 230745Z AUTO 00000KT 10SM CLR 24/23 A2993 RMK AO2 T02420231
KCRE KCRE 230753Z AUTO 24007KT 10SM SCT048 26/24 A2993 RMK AO1 SLP136 T02610239
KCRG KCRG 230753Z AUTO 22004KT 10SM BKN055 25/24 A2998 RMK AO2 SLP150 T02500239
KCTY KCTY 230755Z AUTO 00000KT 7SM BR CLR 24/23 A3003 RMK AO2 T02370233
KCUB KCUB 230753Z AUTO 20003KT 10SM CLR 25/23 A2993 RMK AO2 SLP133 T02500233
KCWV KCWV 230755Z AUTO 00000KT 5SM BR CLR 24/24 A2997 RMK AO2 T02400236
KCXU KCXU 211950Z AUTO 12006KT 10SM CLR A3010 RMK AO1
KDAB KDAB 230753Z 00000KT 9SM CLR 25/25 A2997 RMK AO2 SLP147 T02500250
KDED KDED 230755Z AUTO 00000KT 10SM SCT019 24/23 A2996 RMK AO2
KDHN KDHN 230753Z AUTO 30005KT 10SM CLR 25/24 A3003 RMK AO2 SLP161 T02500244
KDQH KDQH 230755Z AUTO 00000KT 23/22 A2999 RMK AO2 PWINO
KDTS KDTS 230753Z AUTO 35003KT 10SM CLR 28/24 A2998 RMK AO2 SLP150 T02780244
KDYB KDYB 230755Z AUTO 00000KT 10SM CLR 23/23 A2996 RMK AO1
KECP KECP 230753Z AUTO 00000KT 10SM CLR 24/23 A2997 RMK AO2 SLP160 T02440233
KEDN KEDN 230755Z AUTO 00000KT 10SM CLR 23/23 A3000 RMK AO2 T02310231
KEGI KEGI 230756Z AUTO 00000KT 4SM BR CLR 23/23 A2998 RMK AO2 SLP152 T02300225 $
KEVB KEVB 230150Z 06010KT 10SM SKC 28/24 A3002 RMK LAST
KEZM KEZM 230735Z AUTO 00000KT 10SM CLR 24/24 A3000 RMK AO2 T02370237
KFDW KFDW 230755Z AUTO 21003KT 10SM CLR 23/22 A2994 RMK AO1
KFIN KFIN 230755Z AUTO 00000KT 7SM CLR 24/M07 A2997 RMK AO2 T02351072
KFLO KFLO 230753Z AUTO 22005KT 10SM CLR 24/24 A2993 RMK AO2 SLP132 T02440244
KGGE KGGE 230755Z AUTO 23003KT 10SM CLR 23/23 A2996 RMK AO2
KGIF KGIF 230753Z AUTO 04003KT 10SM CLR 26/24 A2996 RMK AO2 SLP143 T02560239
KGNV KGNV 230753Z 00000KT 10SM CLR 23/22 A3001 RMK AO2 SLP157 T02330222
KHOE KHOE 230755Z AUTO 00000KT 10SM CLR 23/23 A2998 RMK AO2
KHRT KHRT 230756Z 36005KT 10SM CLR 24/24 A2997 RMK AO2A SLP150 T02410241 $
KHVS KHVS 230755Z AUTO 00000KT 10SM BKN095 23/22 A2993 RMK AO2
KHXD KHXD 230755Z AUTO 00000KT 10SM FEW033 SCT042 SCT048 26/25 A2997 RMK AO2
KHYW KHYW 230755Z AUTO 20004KT 7SM CLR 23/23 A2994 RMK AO2
KISM KISM 230756Z AUTO 08005KT 10SM CLR 26/24 A2996 RMK AO2 SLP146 T02610244
KJAX KJAX 230756Z 27004KT 9SM SCT050 24/24 A2997 RMK AO2 SLP150 T02440244
KJES KJES 230756Z AUTO 00000KT 7SM CLR 23/22 A2997 RMK AO2
KJKA KJKA 230755Z AUTO 00000KT 1 1/4SM BR VV007 23/23 A2998 RMK AO2 T02340234
KJYL KJYL 230755Z AUTO 00000KT 24/24 A2997 RMK AO2 T02350235 PWINO
KJZI KJZI 230755Z AUTO 00000KT 10SM CLR 27/24 A2996 RMK AO2
KLCQ KLCQ 230755Z AUTO 00000KT 10SM SCT110 23/23 A2999 RMK AO2
KLEE KLEE 230753Z AUTO 03003KT 10SM CLR 26/25 A2997 RMK AO2 SLP147 T02560250
KLHW KLHW 230758Z AUTO 21003KT 10SM FEW200 25/23 A2994 RMK AO2 SLP141 T02480229 $
KLRO KLRO 230755Z AUTO 00000KT 9SM SCT046 26/25 A2995 RMK AO2
KMAI KMAI 230753Z AUTO 00000KT 10SM CLR 25/24 A2998 RMK AO2 SLP149 T02500239
KMCO KMCO 230753Z 08004KT 10SM FEW020 25/25 A2996 RMK AO2 SLP142 T02500250
KMLB KMLB 230753Z AUTO 00000KT 10SM CLR 26/24 A2995 RMK AO2 SLP140 T02610244
KMMT KMMT 230758Z AUTO 16003KT 10SM CLR 23/23 A2993 RMK AO2 SLPNO T02330229 $
KMNI KMNI 230755Z AUTO 00000KT 10SM CLR 25/20 A2994 RMK AO2
KMYR KMYR 230656Z AUTO 25006KT 10SM CLR 26/24 A2996 RMK AO2 SLP145 P0001 T02560239
KNBC KNBC 230756Z AUTO 20004KT 10SM CLR 26/25 A2996 RMK AO2 SLP145 T02560250
KNDZ KNDZ 230756Z AUTO 00000KT 4SM BR CLR 24/23 A2999 RMK AO2 SLP140 T02440233 $
KNIP KNIP 230753Z 26005KT 10SM SCT055 26/24 A2998 RMK AO2 SLP149 T02610244
KNPA KNPA 230756Z AUTO 33003KT CLR 25/23 A2997 RMK AO2 SLP151 T02500233 $
KNRB KNRB 230752Z AUTO 25003KT 10SM BKN050 26/24 A2997 RMK AO2 SLP149 T02560244 $
KNSE KNSE 230756Z AUTO 00000KT 8SM CLR 22/22 A2999 RMK AO2 SLP140 T02220222 $
KOCF KOCF 230751Z AUTO 00000KT 9SM CLR 23/22 A2998 RMK AO2 SLP152 T02280222 $
KOGB KOGB 230753Z AUTO 22004KT 8SM CLR 23/22 A2995 RMK AO2 SLP139 T02330222
KOMN KOMN 222350Z 07007KT 10SM SKC 29/24 A3003 RMK LAST
KORL KORL 230753Z AUTO 09003KT 10SM CLR 25/25 A2996 RMK AO2 SLP147 T02500250
KOZR KOZR 230756Z AUTO 00000KT 10SM BKN150 24/23 A2999 RMK AO2 SLP154 T02390230
KPAM KPAM 230756Z AUTO 00000KT 10SM CLR 25/24 A2998 RMK AO2 SLP155 T02490238
KPNS KPNS 230753Z 00000KT 10SM CLR 26/24 A2998 RMK AO2 SLP152 T02610239
KRBW KRBW 230755Z AUTO 23004KT 10SM CLR 24/23 A2996 RMK AO2
KSAV KSAV 230753Z AUTO 21004KT 10SM SCT080 25/24 A2997 RMK AO2 SLP147 T02500239
KSFB KSFB 230753Z AUTO 00000KT 10SM CLR 26/24 A2996 RMK AO2 SLP144 T02560244
KSGJ KSGJ 230756Z AUTO 26004KT 10SM CLR 24/23 A2998 RMK AO2 SLP152 T02440233
KSMS KSMS 230735Z AUTO 00000KT 10SM CLR 25/23 A2994 RMK AO2
KSSC KSSC 230758Z AUTO 22007KT 10SM CLR 25/23 A2991 RMK AO2 SLP127 T02460229 $
KSSI KSSI 230753Z AUTO 23006KT 10SM FEW055 27/26 A2997 RMK AO2 SLP149 T02670256
KSVN KSVN 230757Z 23004KT 10SM FEW050 25/24 A2994 RMK SLP141 T02470237
KTBR KTBR 230755Z AUTO 22003KT 10SM CLR 25/23 A2996 RMK AO2 T02500227
KTIX KTIX 230047Z 06010KT 7SM SCT030 30/27 A3000 RMK LAST
KTLH KTLH 230753Z AUTO 00000KT 10SM CLR 24/24 A2998 RMK AO2 SLP149 T02440239 $
KTMA KTMA 230755Z AUTO 27004KT 10SM CLR 25/25 A2998 RMK AO2 T02480247
KTTS KTTS 230758Z AUTO 00000KT 10SM CLR 25/25 A2994 RMK AO2 SLP143 T02520252 VISNO RWY15 CHINO RWY15 $
KTVI KTVI 230755Z AUTO 00000KT 7SM CLR 24/24 A2999 RMK AO2
KUDG KUDG 230756Z AUTO 23006KT 10SM OVC095 25/24 A2993 RMK AO2 SLP136 T02500239
KVAD KVAD 230758Z AUTO 00000KT 10SM CLR 24/23 A2996 RMK AO2 SLP145 T02430232 $
KVDI KVDI 230755Z AUTO 24003KT 10SM CLR 24/23 A2997 RMK AO2
KVLD KVLD 230753Z AUTO 00000KT 5SM BR CLR 23/23 A2997 RMK AO2 SLP155 T02280228 $
KVPS KVPS 230757Z 00000KT 10SM FEW250 25/24 A2997 RMK AO2A SLP154 T02470235 $
KVQQ KVQQ 230755Z AUTO 00000KT 10SM BKN055 24/24 A2998 RMK AO2
KXMR KXMR 230758Z AUTO 00000KT 10SM CLR 25/24 A2994 RMK AO2 SLP142 T02540240
KXNO KXNO 291158Z AUTO 00000KT 10SM FEW130 24/24 A2997 RMK AO2 SLP149 52009

Next Generation Radar

This is a composite plot of the radar summary, echo tops, storm movement, TVS and MESO signatures and watch boxes. The radar summary is color coded by precip type. Greens, yellows and reds are rain. Pinks are mixed precipitation (freezing rain, sleet). Blues are snow. NOTE: Radar data is susceptible to a phenomena called anomalous propagation. This generally happens at night and appears as a area of 20 dBZ echos (darkest green) which is centered around each radar site and expands with time. To try and reduce the problem, low echo values near the radar sites have been removed.


GOES 13 Visible Radar

This image is the equivalent of taking a black and white photo of the earth. The bright areas show where the sun is being reflected back into space as a result of clouds or snow cover. Clouds and snow show up white. The thicker the cloud, the brighter the color. Land surfaces show up as gray and ocean surfaces nearly black. The major limitation to visible imagery is that it is only valid during daylight.

GOES 13 Infrared 12 Hour Loop

This type of image shows heat based radiation from the infrared spectrum. In other words, the warmer the surface, the more infrared radiation it emits. For a satellite image, cooler surfaces are bright and warmer surfaces are dark. Since the atmosphere cools as you increase in altitude, clouds would show up as bright areas and land surfaces as dark areas. In addition, low clouds will be more gray and higher clouds will show up more white. Tall thunderstorm clouds will show up as bright white and fog will be hard to discern from land areas. A large advantage of IR is that you can view it 24 hours a day.


Surface Data

This is a composite map contain the following analyses: radar summary (color filled areas), surface data plot (composite station model), frontal locations (in various bold lines) and pressure contours (in thin blue lines).